Ana Sayfa
METAR-TAF:

METAR-TAF

Havaalanları :

Fort Smith, Arkansas, Amerika Birleşik Devletleri

Enlem: 35-20-01N, Boylam: 094-21-54W, yükseklik: 142 m

Güncel hava durumu gözlemi

Rapor saat 18:53 UTC de 24 dakika önce yapıldı.
Rüzgar batı/güneybatıdan 16 kt ve 22 kt'a kadar ani rüzgarlar
Sıcaklık 12°C
Nem 71%
Basınç 1003 hPa
Görüş mesafesi: 16.1 km
2700 ft yükseklikte çok bulutlu

METAR: KFSM 241853Z 24016G22KT 10SM OVC027 12/07 A2961 RMK AO2 SLP028 T01170067

Saat: 13:17 (19:17 UTC)

Tahmin

Rapor saat 17:20 UTC de 1 saat ve 57 dakika önce yapıldı.
Ayın 24'si saat 18 UTC'den ayın 25'si saat 18 UTC'ye kadar geçerli Tahmin
Rüzgar batı/güneybatıdan 14 kt ve 24 kt'a kadar ani rüzgarlar
Görüş mesafesi: 10 km
2500 ft yükseklikte çok bulutlu
Ayın 25'si saat 0100 UTC'den
Rüzgar batı/kuzeybatıdan 11 kt
Görüş mesafesi: 10 km
1500 ft yükseklikte çok bulutlu

TAF: KFSM 241720Z 2418/2518 25014G24KT P6SM OVC025 FM250100 29011KT P6SM OVC015

4.000'den fazla havaalanı için hava durumu gözlemleri ve tahminleri (METAR ve TAF raporları).

Kullanılabilir istasyonlar harita üzerinde sarı ve kırmızı noktalarla gösterilir.

İstasyonun adını görmek için fareyi noktanın üzerinde gezdirin.

Sonrasında hava gözlem ve tahminlerini görmek için tıklayın.

Haritayı değiştirmek için: yaklaştırmak için siyah artı işaretli yeşil düğmeye ve uzaklaştırmak için de eksi işaretli düğmeye hızla tıklayın; bitişik haritalar için yeşil okları kullanın.


METAR-TAF: